Port Barre, Louisiana
Current Conditions -  °F | °C
As of 11:15 AM on Sunday 23 Nov 2014 (Local Time) from KOPL Reporting Station
Overcast Overcast  
Wind Chill: 70°   Ceiling: 2100
Heat Index: 70°   Visibility: 10mi
Dew Point: 62°   Wind: 21mph
Humidity: 75%   Direction: 230°SW
Pressure: 29.64"   Gusts: 26mph
Location:  30.56°N, 91.95°W
Report Text: KOPL 231715Z AUTO 23018G23KT 10SM BKN021 OVC030 21/16 A2964 RMK AO2 LTG DSNT SE T02100164
Loading
Personal Weather Stations






























Interactive Weather Map New forecast layout! Learn more

10-Day Weather Forecast

Advertisements
Track Severe Weather on mobile